Ridgeway, South Carolina
Current Conditions -  °F | °C
As of 11:55 AM on Monday 22 Dec 2014 (Local Time) from KFDW Reporting Station
Haze Haze  
Wind Chill: 37°   Ceiling: 300
Heat Index: 41°   Visibility: 1.2mi
Dew Point: 41°   Wind: 6mph
Humidity: 100%   Direction: 20°NNE
Pressure: 30.07"   Gusts: NA
Location:  34.31°N, 80.96°W
Report Text: KFDW 221655Z AUTO 02005KT 1 1/4SM BR OVC003 05/05 A3007 RMK AO1
Loading
Personal Weather Stations






























Interactive Weather Map New forecast layout! Learn more

10-Day Weather Forecast

Advertisements
Track Severe Weather on mobile